createdAt,value
2017-04-23T00:00:04.888Z,4.90
2017-04-23T00:01:04.617Z,4.90
2017-04-23T00:02:04.357Z,4.90
2017-04-23T00:04:04.029Z,4.90
2017-04-23T00:05:03.764Z,4.90
2017-04-23T00:06:04.282Z,4.90
2017-04-23T00:07:04.013Z,4.90
2017-04-23T00:08:03.723Z,4.90
2017-04-23T00:09:03.438Z,4.90
2017-04-23T00:10:03.161Z,4.90
2017-04-23T00:11:02.861Z,4.80
2017-04-23T00:12:02.641Z,4.80
2017-04-23T00:13:02.404Z,4.80
2017-04-23T00:14:02.877Z,4.80
2017-04-23T00:15:02.607Z,4.80
2017-04-23T00:16:03.053Z,4.90
2017-04-23T00:17:02.772Z,4.80
2017-04-23T00:18:02.557Z,4.80
2017-04-23T00:19:02.278Z,4.80
2017-04-23T00:20:01.984Z,4.80
2017-04-23T00:21:01.711Z,4.80
2017-04-23T00:22:01.433Z,4.80
2017-04-23T00:23:01.153Z,4.80
2017-04-23T00:24:00.898Z,4.80
2017-04-23T00:25:01.346Z,4.80
2017-04-23T00:26:01.045Z,4.80
2017-04-23T00:27:00.765Z,4.80
2017-04-23T00:28:00.508Z,4.80
2017-04-23T00:29:00.246Z,4.80
2017-04-23T00:30:00.001Z,4.80
2017-04-23T00:30:59.709Z,4.80
2017-04-23T00:32:00.167Z,4.80
2017-04-23T00:32:59.898Z,4.80
2017-04-23T00:33:59.618Z,4.80
2017-04-23T00:34:59.370Z,4.80
2017-04-23T00:35:59.092Z,4.80
2017-04-23T00:36:58.806Z,4.80
2017-04-23T00:37:58.510Z,4.80
2017-04-23T00:38:58.240Z,4.80
2017-04-23T00:39:58.702Z,4.80
2017-04-23T00:40:58.448Z,4.80
2017-04-23T00:41:58.242Z,4.80
2017-04-23T00:42:57.944Z,4.80
2017-04-23T00:43:57.816Z,4.80
2017-04-23T00:44:57.527Z,4.80
2017-04-23T00:45:57.262Z,4.80
2017-04-23T00:46:57.719Z,4.90
2017-04-23T00:47:57.503Z,4.80
2017-04-23T00:48:57.213Z,4.80
2017-04-23T00:49:56.977Z,4.80
2017-04-23T00:50:56.680Z,4.80
2017-04-23T00:51:57.150Z,4.80
2017-04-23T00:52:56.953Z,4.80
2017-04-23T00:53:56.706Z,4.80
2017-04-23T00:54:57.189Z,4.80
2017-04-23T00:55:56.929Z,4.80
2017-04-23T00:56:57.369Z,4.80
2017-04-23T00:57:57.103Z,4.80
2017-04-23T00:58:57.555Z,4.90
2017-04-23T00:59:57.337Z,4.90
2017-04-23T01:00:57.773Z,4.90
2017-04-23T01:01:57.567Z,4.90
2017-04-23T01:02:57.396Z,4.90
2017-04-23T01:03:57.116Z,4.80
2017-04-23T01:04:56.829Z,4.80
2017-04-23T01:05:56.562Z,4.80
2017-04-23T01:06:56.273Z,4.90
2017-04-23T01:07:55.989Z,4.90
2017-04-23T01:08:55.823Z,4.90
2017-04-23T01:09:55.533Z,4.90
2017-04-23T01:10:55.266Z,4.90
2017-04-23T01:11:54.977Z,4.90
2017-04-23T01:12:54.712Z,4.90
2017-04-23T01:13:54.428Z,5.00
2017-04-23T01:14:54.172Z,5.00
2017-04-23T01:15:53.892Z,5.00
2017-04-23T01:16:53.598Z,5.00
2017-04-23T01:17:54.117Z,5.00
2017-04-23T01:18:54.654Z,5.00
2017-04-23T01:19:54.382Z,5.00
2017-04-23T01:20:54.145Z,5.10
2017-04-23T01:21:54.609Z,5.00
2017-04-23T01:22:54.336Z,5.00
2017-04-23T01:23:54.035Z,5.00
2017-04-23T01:24:53.769Z,5.00
2017-04-23T01:25:53.615Z,5.10
2017-04-23T01:26:53.357Z,5.10
2017-04-23T01:27:53.099Z,5.10
2017-04-23T01:28:52.813Z,5.10
2017-04-23T01:29:52.556Z,5.10
2017-04-23T01:30:53.036Z,5.10
2017-04-23T01:31:52.743Z,5.10
2017-04-23T01:32:52.473Z,5.10
2017-04-23T01:33:52.249Z,5.10
2017-04-23T01:34:51.987Z,5.10
2017-04-23T01:35:52.512Z,5.10
2017-04-23T01:36:53.000Z,5.10
2017-04-23T01:37:52.704Z,5.10
2017-04-23T01:38:52.422Z,5.10
2017-04-23T01:39:52.889Z,5.20
2017-04-23T01:40:52.606Z,5.20
2017-04-23T01:41:52.368Z,5.20
2017-04-23T01:42:52.128Z,5.10
2017-04-23T01:43:51.843Z,5.10
2017-04-23T01:44:51.541Z,5.10
2017-04-23T01:45:52.016Z,5.10
2017-04-23T01:46:51.746Z,5.20
2017-04-23T01:48:51.473Z,5.10
2017-04-23T01:49:51.941Z,5.10
2017-04-23T01:50:51.660Z,5.10
2017-04-23T01:51:51.379Z,5.10
2017-04-23T01:52:51.108Z,5.10
2017-04-23T01:53:50.848Z,5.00
2017-04-23T01:54:50.543Z,5.00
2017-04-23T01:55:50.253Z,5.00
2017-04-23T01:56:49.975Z,5.00
2017-04-23T01:57:49.694Z,4.90
2017-04-23T01:58:50.204Z,4.90
2017-04-23T01:59:49.937Z,4.90
2017-04-23T02:00:49.648Z,4.90
2017-04-23T02:01:49.353Z,4.90
2017-04-23T02:02:49.073Z,4.90
2017-04-23T02:03:48.798Z,4.90
2017-04-23T02:04:48.533Z,4.90
2017-04-23T02:05:48.289Z,4.80
2017-04-23T02:06:48.025Z,4.80
2017-04-23T02:07:48.490Z,4.80
2017-04-23T02:08:48.214Z,4.80
2017-04-23T02:09:47.926Z,4.80
2017-04-23T02:10:48.461Z,4.80
2017-04-23T02:11:48.906Z,4.80
2017-04-23T02:12:48.624Z,4.80
2017-04-23T02:13:48.360Z,4.80
2017-04-23T02:14:48.095Z,4.80
2017-04-23T02:15:47.908Z,4.70
2017-04-23T02:16:47.631Z,4.70
2017-04-23T02:17:47.379Z,4.70
2017-04-23T02:18:47.956Z,4.70
2017-04-23T02:19:47.662Z,4.70
2017-04-23T02:20:47.411Z,4.70
2017-04-23T02:21:47.898Z,4.70
2017-04-23T02:22:47.618Z,4.70
2017-04-23T02:23:48.082Z,4.70
2017-04-23T02:24:47.816Z,4.80
2017-04-23T02:26:47.503Z,4.80
2017-04-23T02:27:47.280Z,4.80
2017-04-23T02:28:46.985Z,4.80
2017-04-23T02:29:46.714Z,4.80
2017-04-23T02:30:46.452Z,4.80
2017-04-23T02:31:46.974Z,4.80
2017-04-23T02:32:47.449Z,4.70
2017-04-23T02:33:47.187Z,4.80
2017-04-23T02:34:47.625Z,4.80
2017-04-23T02:35:47.335Z,4.80
2017-04-23T02:36:47.057Z,4.80
2017-04-23T02:37:46.806Z,4.90
2017-04-23T02:38:47.300Z,4.90
2017-04-23T02:39:47.020Z,4.90
2017-04-23T02:40:47.468Z,4.90
2017-04-23T02:41:47.193Z,5.00
2017-04-23T02:42:46.942Z,5.00
2017-04-23T02:43:46.673Z,4.90
2017-04-23T02:44:46.415Z,4.90
2017-04-23T02:45:46.115Z,4.90
2017-04-23T02:46:45.820Z,4.90
2017-04-23T02:47:45.536Z,4.90
2017-04-23T02:48:45.261Z,5.00
2017-04-23T02:49:44.985Z,5.00
2017-04-23T02:50:44.737Z,5.00
2017-04-23T02:51:44.465Z,5.00
2017-04-23T02:52:44.193Z,5.00
2017-04-23T02:53:44.636Z,5.00
2017-04-23T02:54:44.380Z,5.00
2017-04-23T02:55:44.127Z,5.00
2017-04-23T02:56:44.580Z,4.90
2017-04-23T02:57:44.306Z,4.90
2017-04-23T02:58:44.013Z,4.90
2017-04-23T02:59:43.723Z,5.00
2017-04-23T03:00:43.445Z,5.00
2017-04-23T03:01:43.953Z,4.90
2017-04-23T03:02:44.410Z,4.90
2017-04-23T03:03:44.396Z,5.00
2017-04-23T03:04:44.117Z,5.00
2017-04-23T03:05:43.808Z,5.00
2017-04-23T03:06:43.555Z,5.00
2017-04-23T03:07:43.272Z,5.00
2017-04-23T03:08:42.989Z,5.00
2017-04-23T03:09:42.692Z,5.00
2017-04-23T03:10:42.431Z,5.00
2017-04-23T03:11:42.904Z,5.00
2017-04-23T03:12:42.626Z,5.10
2017-04-23T03:13:42.357Z,5.10
2017-04-23T03:14:42.826Z,5.10
2017-04-23T03:15:42.524Z,5.10
2017-04-23T03:16:42.253Z,5.10
2017-04-23T03:17:41.953Z,5.10
2017-04-23T03:18:41.686Z,5.10
2017-04-23T03:19:41.416Z,5.10
2017-04-23T03:20:41.234Z,5.10
2017-04-23T03:21:41.533Z,5.10
2017-04-23T03:22:41.246Z,5.10
2017-04-23T03:23:41.224Z,5.10
2017-04-23T03:24:41.047Z,5.00
2017-04-23T03:25:40.765Z,5.00
2017-04-23T03:26:40.481Z,5.00
2017-04-23T03:27:40.179Z,5.00
2017-04-23T03:28:39.917Z,5.00
2017-04-23T03:29:39.640Z,5.00
2017-04-23T03:30:39.359Z,5.00
2017-04-23T03:31:39.132Z,5.00
2017-04-23T03:32:38.880Z,5.00
2017-04-23T03:33:38.601Z,5.10
2017-04-23T03:34:39.061Z,5.10
2017-04-23T03:35:38.901Z,5.00
2017-04-23T03:36:38.665Z,5.10
2017-04-23T03:37:38.381Z,5.10
2017-04-23T03:38:38.125Z,5.10
2017-04-23T03:39:38.583Z,5.10
2017-04-23T03:40:38.295Z,5.10
2017-04-23T03:41:38.100Z,5.10
2017-04-23T03:42:37.822Z,5.10
2017-04-23T03:43:37.546Z,5.20
2017-04-23T03:44:38.002Z,5.20
2017-04-23T03:45:37.726Z,5.20
2017-04-23T03:46:37.448Z,5.30
2017-04-23T03:47:37.947Z,5.30
2017-04-23T03:48:37.646Z,5.30
2017-04-23T03:49:37.407Z,5.30
2017-04-23T03:50:37.129Z,5.30
2017-04-23T03:51:36.885Z,5.30
2017-04-23T03:52:37.366Z,5.30
2017-04-23T03:53:37.102Z,5.20
2017-04-23T03:54:36.840Z,5.30
2017-04-23T03:55:37.293Z,5.30
2017-04-23T03:56:37.019Z,5.30
2017-04-23T03:57:36.728Z,5.30
2017-04-23T03:58:37.219Z,5.30
2017-04-23T03:59:36.942Z,5.30
2017-04-23T04:00:36.656Z,5.30
2017-04-23T04:01:37.120Z,5.30
2017-04-23T04:02:36.857Z,5.30
2017-04-23T04:03:36.573Z,5.30
2017-04-23T04:04:37.088Z,5.30
2017-04-23T04:05:37.555Z,5.30
2017-04-23T04:06:37.264Z,5.30
2017-04-23T04:07:36.986Z,5.30
2017-04-23T04:08:36.712Z,5.30
2017-04-23T04:09:37.185Z,5.30
2017-04-23T04:10:36.945Z,5.30
2017-04-23T04:11:36.680Z,5.30
2017-04-23T04:12:36.418Z,5.30
2017-04-23T04:13:36.137Z,5.30
2017-04-23T04:14:36.599Z,5.30
2017-04-23T04:15:36.457Z,5.30
2017-04-23T04:17:36.145Z,5.30
2017-04-23T04:18:35.886Z,5.30
2017-04-23T04:19:35.582Z,5.30
2017-04-23T04:20:35.316Z,5.30
2017-04-23T04:21:35.049Z,5.30
2017-04-23T04:22:34.747Z,5.30
2017-04-23T04:23:35.205Z,5.30
2017-04-23T04:24:34.931Z,5.40
2017-04-23T04:25:34.659Z,5.40
2017-04-23T04:26:34.417Z,5.40
2017-04-23T04:27:34.144Z,5.40
2017-04-23T04:28:33.868Z,5.30
2017-04-23T04:29:33.915Z,5.30
2017-04-23T04:30:33.626Z,5.40
2017-04-23T04:31:33.360Z,5.40
2017-04-23T04:32:33.065Z,5.40
2017-04-23T04:33:32.797Z,5.40
2017-04-23T04:34:33.265Z,5.40
2017-04-23T04:35:32.965Z,5.40
2017-04-23T04:36:32.715Z,5.40
2017-04-23T04:37:33.186Z,5.40
2017-04-23T04:38:33.071Z,5.40
2017-04-23T04:39:32.773Z,5.40
2017-04-23T04:40:32.469Z,5.40
2017-04-23T04:41:32.180Z,5.40
2017-04-23T04:42:31.889Z,5.50
2017-04-23T04:43:31.662Z,5.50
2017-04-23T04:44:31.457Z,5.50
2017-04-23T04:45:31.422Z,5.50
2017-04-23T04:46:31.369Z,5.50
2017-04-23T04:47:31.482Z,5.60
2017-04-23T04:48:31.691Z,5.60
2017-04-23T04:49:31.800Z,5.50
2017-04-23T04:50:32.018Z,5.50
2017-04-23T04:51:32.432Z,5.50
2017-04-23T04:52:32.169Z,5.50
2017-04-23T04:53:31.907Z,5.50
2017-04-23T04:54:32.396Z,5.50
2017-04-23T04:55:32.144Z,5.60
2017-04-23T04:56:31.877Z,5.50
2017-04-23T04:57:31.629Z,5.60
2017-04-23T04:58:32.182Z,5.60
2017-04-23T04:59:31.894Z,5.60
2017-04-23T05:00:31.645Z,5.60
2017-04-23T05:01:32.137Z,5.70
2017-04-23T05:02:31.863Z,5.70
2017-04-23T05:03:32.584Z,5.70
2017-04-23T05:04:32.419Z,5.70
2017-04-23T05:05:33.485Z,5.60
2017-04-23T05:06:33.212Z,5.60
2017-04-23T05:07:32.961Z,5.70
2017-04-23T05:08:32.672Z,5.70
2017-04-23T05:09:32.407Z,5.70
2017-04-23T05:10:32.192Z,5.70
2017-04-23T05:11:31.916Z,5.70
2017-04-23T05:12:31.933Z,5.70
2017-04-23T05:13:32.392Z,5.70
2017-04-23T05:14:32.348Z,5.70
2017-04-23T05:15:32.098Z,5.70
2017-04-23T05:16:31.823Z,5.70
2017-04-23T05:17:31.562Z,5.70
2017-04-23T05:18:32.220Z,5.60
2017-04-23T05:19:31.932Z,5.60
2017-04-23T05:20:32.259Z,5.60
2017-04-23T05:21:31.982Z,5.60
2017-04-23T05:22:31.680Z,5.60
2017-04-23T05:23:31.389Z,5.60
2017-04-23T05:24:31.165Z,5.60
2017-04-23T05:25:30.886Z,5.60
2017-04-23T05:26:30.628Z,5.50
2017-04-23T05:27:30.344Z,5.50
2017-04-23T05:28:30.090Z,5.60
2017-04-23T05:29:29.860Z,5.60
2017-04-23T05:30:29.592Z,5.70
2017-04-23T05:31:29.315Z,5.60
2017-04-23T05:32:29.874Z,5.60
2017-04-23T05:33:29.863Z,5.70
2017-04-23T05:34:29.637Z,5.80
2017-04-23T05:35:30.281Z,5.80
2017-04-23T05:36:29.992Z,5.80
2017-04-23T05:37:29.781Z,5.80
2017-04-23T05:38:30.278Z,5.80
2017-04-23T05:39:30.044Z,5.90
2017-04-23T05:40:30.533Z,5.90
2017-04-23T05:41:30.298Z,6.00
2017-04-23T05:42:30.070Z,6.10
2017-04-23T05:43:30.771Z,6.10
2017-04-23T05:44:31.341Z,6.10
2017-04-23T05:45:31.085Z,6.10
2017-04-23T05:46:30.803Z,6.10
2017-04-23T05:47:31.414Z,6.10
2017-04-23T05:48:31.782Z,6.10
2017-04-23T05:49:31.566Z,6.10
2017-04-23T05:50:31.296Z,6.10
2017-04-23T05:51:31.068Z,6.30
2017-04-23T05:52:31.039Z,6.40
2017-04-23T05:53:30.820Z,6.30
2017-04-23T05:54:30.531Z,6.40
2017-04-23T05:55:30.332Z,6.40
2017-04-23T05:56:30.079Z,6.50
2017-04-23T05:57:29.844Z,6.50
2017-04-23T05:58:29.827Z,6.30
2017-04-23T05:59:29.751Z,6.30
2017-04-23T06:00:29.737Z,6.30
2017-04-23T06:01:29.546Z,6.40
2017-04-23T06:02:29.327Z,6.40
2017-04-23T06:03:29.188Z,6.40
2017-04-23T06:04:29.717Z,6.40
2017-04-23T06:05:29.449Z,6.50
2017-04-23T06:06:29.254Z,6.50
2017-04-23T06:07:29.018Z,6.40
2017-04-23T06:08:28.751Z,6.30
2017-04-23T06:09:28.522Z,6.20
2017-04-23T06:10:28.242Z,6.20
2017-04-23T06:11:27.965Z,6.20
2017-04-23T06:12:27.722Z,6.10
2017-04-23T06:13:27.457Z,6.00
2017-04-23T06:14:27.221Z,6.00
2017-04-23T06:15:26.950Z,6.00
2017-04-23T06:16:26.654Z,6.00
2017-04-23T06:17:26.387Z,6.00
2017-04-23T06:18:26.164Z,6.00
2017-04-23T06:19:25.935Z,5.90
2017-04-23T06:20:25.667Z,6.00
2017-04-23T06:21:25.420Z,6.00
2017-04-23T06:22:25.192Z,6.10
2017-04-23T06:23:25.620Z,6.10
2017-04-23T06:24:25.377Z,6.30
2017-04-23T06:25:25.119Z,6.30
2017-04-23T06:26:24.872Z,6.30
2017-04-23T06:27:24.604Z,6.30
2017-04-23T06:28:25.076Z,6.20
2017-04-23T06:29:24.810Z,6.10
2017-04-23T06:30:25.258Z,6.20
2017-04-23T06:31:25.008Z,6.10
2017-04-23T06:32:24.764Z,6.10
2017-04-23T06:33:24.491Z,6.20
2017-04-23T06:34:24.469Z,6.20
2017-04-23T06:35:24.175Z,6.20
2017-04-23T06:36:23.897Z,6.20
2017-04-23T06:37:23.632Z,6.20
2017-04-23T06:38:23.339Z,6.20
2017-04-23T06:39:23.793Z,6.30
2017-04-23T06:40:23.497Z,6.30
2017-04-23T06:41:23.219Z,6.30
2017-04-23T06:42:22.991Z,6.30
2017-04-23T06:43:22.726Z,6.30
2017-04-23T06:44:22.421Z,6.30
2017-04-23T06:45:22.146Z,6.30
2017-04-23T06:46:21.844Z,6.40
2017-04-23T06:47:21.557Z,6.30
2017-04-23T06:48:22.049Z,6.30
2017-04-23T06:49:21.760Z,6.30
2017-04-23T06:50:21.537Z,6.30
2017-04-23T06:51:21.246Z,6.30
2017-04-23T06:52:20.964Z,6.30
2017-04-23T06:53:20.677Z,6.30
2017-04-23T06:54:21.161Z,6.30
2017-04-23T06:55:20.847Z,6.30
2017-04-23T06:56:20.569Z,6.20
2017-04-23T06:57:20.263Z,6.20
2017-04-23T06:58:19.981Z,6.10
2017-04-23T06:59:19.696Z,5.90
2017-04-23T07:00:19.440Z,5.90
2017-04-23T07:01:19.152Z,5.80
2017-04-23T07:02:19.037Z,5.80
2017-04-23T07:03:18.780Z,5.70
2017-04-23T07:04:18.533Z,5.70
2017-04-23T07:05:18.283Z,5.60
2017-04-23T07:06:18.013Z,5.60
2017-04-23T07:07:18.468Z,5.60
2017-04-23T07:08:18.189Z,5.60
2017-04-23T07:09:17.933Z,5.60
2017-04-23T07:10:18.398Z,5.60
2017-04-23T07:11:18.307Z,5.60
2017-04-23T07:12:18.090Z,5.60
2017-04-23T07:13:17.834Z,5.60
2017-04-23T07:14:17.540Z,5.70
2017-04-23T07:15:17.240Z,5.60
2017-04-23T07:16:16.968Z,5.60
2017-04-23T07:17:16.705Z,5.60
2017-04-23T07:18:16.454Z,5.60
2017-04-23T07:19:16.912Z,5.60
2017-04-23T07:20:16.643Z,5.60
2017-04-23T07:21:16.412Z,5.60
2017-04-23T07:22:16.107Z,5.60
2017-04-23T07:23:15.853Z,5.60
2017-04-23T07:24:15.592Z,5.60
2017-04-23T07:25:15.296Z,5.60
2017-04-23T07:26:15.059Z,5.70
2017-04-23T07:27:14.802Z,5.80
2017-04-23T07:28:14.546Z,5.70
2017-04-23T07:29:14.236Z,5.80
2017-04-23T07:30:13.975Z,5.80
2017-04-23T07:31:14.447Z,5.90
2017-04-23T07:32:14.169Z,5.90
2017-04-23T07:33:13.897Z,6.00
2017-04-23T07:34:14.372Z,6.00
2017-04-23T07:35:14.121Z,6.00
2017-04-23T07:36:14.597Z,6.10
2017-04-23T07:37:14.354Z,6.20
2017-04-23T07:38:14.105Z,6.20
2017-04-23T07:39:13.805Z,6.20
2017-04-23T07:40:13.664Z,6.20
2017-04-23T07:41:13.396Z,6.30
2017-04-23T07:42:13.108Z,6.30
2017-04-23T07:43:12.820Z,6.30
2017-04-23T07:44:12.520Z,6.30
2017-04-23T07:45:12.228Z,6.30
2017-04-23T07:46:11.949Z,6.40
2017-04-23T07:47:12.424Z,6.40
2017-04-23T07:48:12.145Z,6.40
2017-04-23T07:49:11.834Z,6.50
2017-04-23T07:50:11.551Z,6.50
2017-04-23T07:51:11.243Z,6.50
2017-04-23T07:52:10.942Z,6.50
2017-04-23T07:53:10.660Z,6.50
2017-04-23T07:54:11.116Z,6.50
2017-04-23T07:55:10.842Z,6.60
2017-04-23T07:56:10.581Z,6.70
2017-04-23T07:57:11.008Z,6.70
2017-04-23T07:58:10.746Z,6.80
2017-04-23T07:59:10.494Z,6.80
2017-04-23T08:00:10.945Z,6.80
2017-04-23T08:01:10.948Z,6.80
2017-04-23T08:02:10.645Z,6.80
2017-04-23T08:03:10.415Z,6.80
2017-04-23T08:04:10.853Z,6.70
2017-04-23T08:05:10.560Z,6.70
2017-04-23T08:06:10.276Z,6.70
2017-04-23T08:07:09.992Z,6.70
2017-04-23T08:08:09.753Z,6.60
2017-04-23T08:09:10.227Z,6.60
2017-04-23T08:10:09.967Z,6.50
2017-04-23T08:11:10.395Z,6.50
2017-04-23T08:12:10.131Z,6.50
2017-04-23T08:13:09.851Z,6.50
2017-04-23T08:14:09.591Z,6.50
2017-04-23T08:15:09.348Z,6.50
2017-04-23T08:16:09.085Z,6.50
2017-04-23T08:17:08.824Z,6.50
2017-04-23T08:18:08.531Z,6.50
2017-04-23T08:19:08.293Z,6.50
2017-04-23T08:20:08.048Z,6.60
2017-04-23T08:21:07.776Z,6.70
2017-04-23T08:22:08.243Z,6.80
2017-04-23T08:23:07.998Z,6.90
2017-04-23T08:24:08.459Z,7.00
2017-04-23T08:25:08.210Z,7.00
2017-04-23T08:26:08.672Z,7.10
2017-04-23T08:27:08.422Z,7.10
2017-04-23T08:28:08.868Z,7.20
2017-04-23T08:29:08.580Z,7.30
2017-04-23T08:30:08.296Z,7.30
2017-04-23T08:31:08.053Z,7.40
2017-04-23T08:32:08.503Z,7.30
2017-04-23T08:33:08.298Z,7.20
2017-04-23T08:34:08.023Z,7.20
2017-04-23T08:35:07.724Z,7.20
2017-04-23T08:36:07.499Z,7.30
2017-04-23T08:37:07.208Z,7.30
2017-04-23T08:38:06.907Z,7.40
2017-04-23T08:39:06.622Z,7.40
2017-04-23T08:40:06.334Z,7.40
2017-04-23T08:41:06.043Z,7.50
2017-04-23T08:42:05.790Z,7.60
2017-04-23T08:43:05.479Z,7.60
2017-04-23T08:44:05.958Z,7.70
2017-04-23T08:45:05.696Z,7.80
2017-04-23T08:46:06.193Z,7.80
2017-04-23T08:47:05.943Z,7.80
2017-04-23T08:48:05.693Z,7.90
2017-04-23T08:49:05.432Z,8.00
2017-04-23T08:50:05.147Z,8.10
2017-04-23T08:51:04.919Z,8.30
2017-04-23T08:52:05.406Z,8.40
2017-04-23T08:53:05.133Z,8.40
2017-04-23T08:54:05.601Z,8.50
2017-04-23T08:55:05.316Z,8.50
2017-04-23T08:56:05.037Z,8.40
2017-04-23T08:57:04.764Z,8.20
2017-04-23T08:58:05.238Z,8.00
2017-04-23T08:59:04.951Z,8.00
2017-04-23T09:00:04.680Z,8.00
2017-04-23T09:01:05.148Z,7.80
2017-04-23T09:02:04.868Z,7.70
2017-04-23T09:03:04.619Z,7.60
2017-04-23T09:04:04.334Z,7.30
2017-04-23T09:05:04.031Z,7.20
2017-04-23T09:06:03.928Z,7.20
2017-04-23T09:07:03.625Z,7.20
2017-04-23T09:08:03.348Z,7.10
2017-04-23T09:09:03.073Z,7.10
2017-04-23T09:10:02.841Z,7.00
2017-04-23T09:11:02.590Z,7.10
2017-04-23T09:12:03.249Z,7.10
2017-04-23T09:13:02.944Z,7.20
2017-04-23T09:14:02.676Z,7.20
2017-04-23T09:15:02.422Z,7.30
2017-04-23T09:16:02.962Z,7.30
2017-04-23T09:17:02.711Z,7.40
2017-04-23T09:18:02.400Z,7.50
2017-04-23T09:19:02.205Z,7.60
2017-04-23T09:20:01.925Z,7.70
2017-04-23T09:21:01.627Z,7.90
2017-04-23T09:22:01.336Z,8.10
2017-04-23T09:24:01.022Z,8.30
2017-04-23T09:25:00.731Z,8.50
2017-04-23T09:26:01.296Z,8.50
2017-04-23T09:27:01.013Z,8.60
2017-04-23T09:28:00.779Z,8.60
2017-04-23T09:29:00.535Z,8.60
2017-04-23T09:30:00.278Z,8.60
2017-04-23T09:31:00.717Z,8.70
2017-04-23T09:32:00.421Z,8.70
2017-04-23T09:33:00.136Z,8.90
2017-04-23T09:33:59.836Z,9.00
2017-04-23T09:34:59.598Z,9.10
2017-04-23T09:35:59.341Z,9.00
2017-04-23T09:36:59.203Z,9.10
2017-04-23T09:37:58.923Z,9.10
2017-04-23T09:38:58.642Z,8.90
2017-04-23T09:39:58.386Z,8.20
2017-04-23T09:40:58.900Z,8.00
2017-04-23T09:41:58.613Z,7.50
2017-04-23T09:42:59.071Z,7.00
2017-04-23T09:43:58.789Z,6.70
2017-04-23T09:44:58.528Z,6.50
2017-04-23T09:45:58.261Z,6.40
2017-04-23T09:46:58.051Z,6.20
2017-04-23T09:47:57.009Z,6.20
2017-04-23T09:48:57.474Z,6.00
2017-04-23T09:49:57.189Z,6.00
2017-04-23T09:50:56.919Z,5.90
2017-04-23T09:51:56.648Z,5.90
2017-04-23T09:52:56.352Z,5.90
2017-04-23T09:53:56.049Z,5.90
2017-04-23T09:54:55.777Z,6.00
2017-04-23T09:55:55.480Z,6.00
2017-04-23T09:56:55.213Z,6.00
2017-04-23T09:57:54.941Z,5.90
2017-04-23T09:58:55.414Z,5.90
2017-04-23T09:59:55.124Z,6.00
2017-04-23T10:00:54.838Z,6.10
2017-04-23T10:01:54.547Z,6.10
2017-04-23T10:02:54.304Z,6.20
2017-04-23T10:03:54.026Z,6.30
2017-04-23T10:04:53.779Z,6.40
2017-04-23T10:05:53.950Z,6.50
2017-04-23T10:06:53.682Z,6.60
2017-04-23T10:07:53.428Z,6.70
2017-04-23T10:08:53.176Z,6.90
2017-04-23T10:09:53.625Z,7.10
2017-04-23T10:10:53.594Z,7.30
2017-04-23T10:11:54.068Z,7.50
2017-04-23T10:12:53.792Z,7.60
2017-04-23T10:13:54.157Z,7.80
2017-04-23T10:14:53.872Z,7.90
2017-04-23T10:15:53.590Z,7.90
2017-04-23T10:16:53.305Z,8.10
2017-04-23T10:17:53.009Z,8.10
2017-04-23T10:19:52.866Z,8.20
2017-04-23T10:20:52.572Z,8.10
2017-04-23T10:21:52.277Z,8.10
2017-04-23T10:22:51.972Z,7.90
2017-04-23T10:23:51.704Z,7.70
2017-04-23T10:24:51.437Z,7.40
2017-04-23T10:25:51.911Z,7.20
2017-04-23T10:26:51.633Z,7.10
2017-04-23T10:27:51.364Z,7.00
2017-04-23T10:28:51.808Z,6.80
2017-04-23T10:29:51.522Z,6.70
2017-04-23T10:30:51.263Z,6.70
2017-04-23T10:31:51.024Z,6.70
2017-04-23T10:32:50.735Z,6.80
2017-04-23T10:33:51.190Z,6.90
2017-04-23T10:34:50.920Z,6.90
2017-04-23T10:35:50.663Z,7.00
2017-04-23T10:36:50.430Z,7.00
2017-04-23T10:37:50.160Z,7.00
2017-04-23T10:38:49.903Z,7.10
2017-04-23T10:39:50.398Z,6.90
2017-04-23T10:40:50.093Z,6.90
2017-04-23T10:41:49.823Z,6.90
2017-04-23T10:42:50.332Z,6.90
2017-04-23T10:43:50.812Z,6.90
2017-04-23T10:44:50.515Z,6.90
2017-04-23T10:45:50.245Z,6.80
2017-04-23T10:46:50.725Z,6.80
2017-04-23T10:47:50.512Z,6.80
2017-04-23T10:48:50.217Z,6.80
2017-04-23T10:49:49.967Z,6.80
2017-04-23T10:50:49.692Z,6.80
2017-04-23T10:51:49.404Z,6.80
2017-04-23T10:52:49.181Z,6.80
2017-04-23T10:53:49.359Z,6.90
2017-04-23T10:54:49.827Z,7.00
2017-04-23T10:55:49.592Z,7.10
2017-04-23T10:56:50.068Z,7.30
2017-04-23T10:57:49.870Z,7.40
2017-04-23T10:58:49.678Z,7.50
2017-04-23T10:59:49.406Z,7.60
2017-04-23T11:00:49.852Z,7.70
2017-04-23T11:01:49.574Z,7.70
2017-04-23T11:02:49.317Z,7.70
2017-04-23T11:03:49.088Z,7.60
2017-04-23T11:04:48.832Z,7.60
2017-04-23T11:05:49.317Z,7.60
2017-04-23T11:06:49.037Z,7.60
2017-04-23T11:07:48.815Z,7.60
2017-04-23T11:08:49.477Z,7.60
2017-04-23T11:09:50.016Z,7.70
2017-04-23T11:10:49.776Z,7.80
2017-04-23T11:11:49.518Z,7.90
2017-04-23T11:12:49.250Z,8.00
2017-04-23T11:13:49.005Z,8.10
2017-04-23T11:14:48.767Z,8.10
2017-04-23T11:15:48.500Z,8.20
2017-04-23T11:16:48.949Z,8.20
2017-04-23T11:17:48.692Z,8.20
2017-04-23T11:18:48.545Z,8.00
2017-04-23T11:19:48.334Z,7.80
2017-04-23T11:20:50.051Z,7.50
2017-04-23T11:22:04.520Z,7.40
2017-04-23T11:23:06.334Z,7.10
2017-04-23T11:24:06.203Z,7.00
2017-04-23T11:25:08.541Z,7.00
2017-04-23T11:26:08.421Z,6.80
2017-04-23T11:27:08.418Z,6.80
2017-04-23T11:28:09.760Z,6.80
2017-04-23T11:29:13.402Z,6.90
2017-04-23T11:30:13.309Z,7.10
2017-04-23T11:31:13.161Z,7.20
2017-04-23T11:32:12.885Z,7.40
2017-04-23T11:33:13.366Z,7.40
2017-04-23T11:34:13.077Z,7.60
2017-04-23T11:35:12.796Z,7.60
2017-04-23T11:36:12.547Z,7.60
2017-04-23T11:37:12.296Z,7.40
2017-04-23T11:38:12.757Z,7.40
2017-04-23T11:39:12.502Z,7.30
2017-04-23T11:40:12.230Z,7.30
2017-04-23T11:41:11.977Z,7.30
2017-04-23T11:42:11.722Z,7.40
2017-04-23T11:43:12.215Z,7.30
2017-04-23T11:44:11.949Z,7.40
2017-04-23T11:45:12.400Z,7.40
2017-04-23T11:46:12.132Z,7.50
2017-04-23T11:47:12.608Z,7.50
2017-04-23T11:49:09.781Z,7.60
2017-04-23T11:50:09.506Z,7.60
2017-04-23T11:51:09.204Z,7.70
2017-04-23T11:52:08.931Z,7.90
2017-04-23T11:53:09.401Z,8.00
2017-04-23T11:54:09.153Z,8.10
2017-04-23T11:55:09.651Z,8.40
2017-04-23T11:56:09.371Z,8.50
2017-04-23T11:57:09.842Z,8.50
2017-04-23T11:58:09.554Z,8.60
2017-04-23T11:59:09.302Z,8.70
2017-04-23T12:00:09.008Z,8.90
2017-04-23T12:01:08.720Z,9.00
2017-04-23T12:02:08.456Z,9.00
2017-04-23T12:03:08.179Z,8.80
2017-04-23T12:04:08.666Z,8.70
2017-04-23T12:05:08.511Z,8.60
2017-04-23T12:06:08.964Z,8.60
2017-04-23T12:07:08.715Z,8.60
2017-04-23T12:08:08.481Z,8.60
2017-04-23T12:09:08.226Z,8.60
2017-04-23T12:10:08.907Z,8.50
2017-04-23T12:11:08.606Z,8.60
2017-04-23T12:12:08.323Z,8.80
2017-04-23T12:13:08.065Z,9.00
2017-04-23T12:14:07.800Z,9.20
2017-04-23T12:15:07.552Z,9.20
2017-04-23T12:16:08.044Z,9.30
2017-04-23T12:17:07.747Z,9.30
2017-04-23T12:18:07.493Z,9.50
2017-04-23T12:19:08.677Z,9.60
2017-04-23T12:20:08.508Z,9.60
2017-04-23T12:21:09.029Z,9.60
2017-04-23T12:22:09.565Z,9.60
2017-04-23T12:23:09.291Z,9.60
2017-04-23T12:24:09.024Z,9.60
2017-04-23T12:25:08.739Z,9.60
2017-04-23T12:26:08.469Z,9.80
2017-04-23T12:27:08.952Z,10.00
2017-04-23T12:28:08.684Z,10.30
2017-04-23T12:29:08.413Z,10.40
2017-04-23T12:30:08.144Z,10.70
2017-04-23T12:31:07.868Z,11.00
2017-04-23T12:32:08.534Z,11.00
2017-04-23T12:33:08.278Z,10.70
2017-04-23T12:34:07.998Z,10.70
2017-04-23T12:35:07.761Z,10.80
2017-04-23T12:36:07.502Z,10.70
2017-04-23T12:37:08.224Z,10.80
2017-04-23T12:38:08.721Z,10.60
2017-04-23T12:39:08.458Z,10.60
2017-04-23T12:40:08.218Z,10.60
2017-04-23T12:41:07.929Z,10.60
2017-04-23T12:42:07.682Z,10.60
2017-04-23T12:43:07.528Z,10.50
2017-04-23T12:44:07.345Z,10.30
2017-04-23T12:45:07.134Z,10.50
2017-04-23T12:46:06.865Z,10.70
2017-04-23T12:47:06.607Z,10.80
2017-04-23T12:48:06.346Z,10.70
2017-04-23T12:49:06.046Z,10.90
2017-04-23T12:50:06.557Z,10.80
2017-04-23T12:51:06.266Z,11.00
2017-04-23T12:52:06.713Z,11.10
2017-04-23T12:53:06.524Z,11.10
2017-04-23T12:54:06.989Z,11.40
2017-04-23T12:55:06.700Z,11.20
2017-04-23T12:56:07.210Z,11.90
2017-04-23T12:57:06.951Z,12.80
2017-04-23T12:58:06.788Z,13.80
2017-04-23T12:59:06.560Z,14.20
2017-04-23T13:00:06.451Z,14.70
2017-04-23T13:01:06.166Z,15.50
2017-04-23T13:02:05.933Z,15.90
2017-04-23T13:03:06.432Z,16.00
2017-04-23T13:04:06.177Z,16.60
2017-04-23T13:05:05.928Z,17.20
2017-04-23T13:06:05.627Z,17.40
2017-04-23T13:07:05.491Z,17.30
2017-04-23T13:08:05.314Z,17.30
2017-04-23T13:09:06.016Z,17.10
2017-04-23T13:10:05.773Z,17.10
2017-04-23T13:11:05.503Z,17.80
2017-04-23T13:12:05.237Z,17.80
2017-04-23T13:13:04.994Z,18.00
2017-04-23T13:14:04.786Z,18.10
2017-04-23T13:15:04.566Z,18.00
2017-04-23T13:16:04.244Z,18.10
2017-04-23T13:17:03.978Z,17.50
2017-04-23T13:18:03.774Z,17.80
2017-04-23T13:19:03.515Z,17.70
2017-04-23T13:20:03.284Z,17.80
2017-04-23T13:21:02.990Z,18.20
2017-04-23T13:22:02.755Z,17.90